createdAt,value
2019-03-31T00:01:57.565Z,10.10
2019-03-31T00:04:28.090Z,10.00
2019-03-31T00:06:58.797Z,10.00
2019-03-31T00:09:29.766Z,9.90
2019-03-31T00:12:00.227Z,9.80
2019-03-31T00:14:31.078Z,9.80
2019-03-31T00:17:01.566Z,9.60
2019-03-31T00:19:32.539Z,9.60
2019-03-31T00:22:03.096Z,9.50
2019-03-31T00:24:33.932Z,9.60
2019-03-31T00:27:04.527Z,9.60
2019-03-31T00:29:35.075Z,9.60
2019-03-31T00:32:05.782Z,9.60
2019-03-31T00:34:36.500Z,9.60
2019-03-31T00:37:07.768Z,9.60
2019-03-31T00:39:39.013Z,9.50
2019-03-31T00:42:09.508Z,9.50
2019-03-31T00:44:41.168Z,9.40
2019-03-31T00:47:11.845Z,9.30
2019-03-31T00:49:42.340Z,9.10
2019-03-31T00:52:13.053Z,8.90
2019-03-31T00:54:44.358Z,8.70
2019-03-31T00:57:14.756Z,8.60
2019-03-31T00:59:45.289Z,8.50
2019-03-31T01:02:20.765Z,8.40
2019-03-31T01:04:51.562Z,8.40
2019-03-31T01:07:23.864Z,8.40
2019-03-31T01:09:56.839Z,8.40
2019-03-31T01:12:27.981Z,8.50
2019-03-31T01:14:58.559Z,8.50
2019-03-31T01:17:29.760Z,8.60
2019-03-31T01:20:00.493Z,8.70
2019-03-31T01:22:30.849Z,8.70
2019-03-31T01:25:01.767Z,8.70
2019-03-31T01:27:32.799Z,8.60
2019-03-31T01:30:03.442Z,8.50
2019-03-31T01:32:34.236Z,8.30
2019-03-31T01:35:06.614Z,8.20
2019-03-31T01:37:37.586Z,8.00
2019-03-31T01:40:08.909Z,7.90
2019-03-31T01:42:39.598Z,7.80
2019-03-31T01:45:10.698Z,7.80
2019-03-31T01:47:41.218Z,7.70
2019-03-31T01:50:14.483Z,7.80
2019-03-31T01:52:44.860Z,7.80
2019-03-31T01:55:15.431Z,7.80
2019-03-31T01:57:45.983Z,7.80
2019-03-31T02:00:29.909Z,7.90
2019-03-31T02:03:00.358Z,7.90
2019-03-31T02:05:30.840Z,7.90
2019-03-31T02:08:01.266Z,8.00
2019-03-31T02:10:31.807Z,7.90
2019-03-31T02:13:02.155Z,8.00
2019-03-31T02:15:33.024Z,8.10
2019-03-31T02:18:04.061Z,8.20
2019-03-31T02:20:34.824Z,8.20
2019-03-31T02:23:08.743Z,8.10
2019-03-31T02:25:39.162Z,8.10
2019-03-31T02:28:09.511Z,8.00
2019-03-31T02:30:39.938Z,8.00
2019-03-31T02:33:10.482Z,8.00
2019-03-31T02:35:40.951Z,8.00
2019-03-31T02:38:11.646Z,8.00
2019-03-31T02:40:42.251Z,8.00
2019-03-31T02:43:12.734Z,8.10
2019-03-31T02:45:43.374Z,8.10
2019-03-31T02:48:14.026Z,8.20
2019-03-31T02:50:51.180Z,8.30
2019-03-31T02:53:21.999Z,8.30
2019-03-31T02:55:55.135Z,8.20
2019-03-31T02:58:27.115Z,8.10
2019-03-31T03:00:58.543Z,8.00
2019-03-31T03:03:30.454Z,7.90
2019-03-31T03:06:02.837Z,7.90
2019-03-31T03:08:36.057Z,7.80
2019-03-31T03:11:08.400Z,7.70
2019-03-31T03:13:40.864Z,7.50
2019-03-31T03:16:36.311Z,7.30
2019-03-31T03:19:06.919Z,7.10
2019-03-31T03:21:37.810Z,6.90
2019-03-31T03:24:08.921Z,6.80
2019-03-31T03:26:39.411Z,6.60
2019-03-31T03:29:09.785Z,6.50
2019-03-31T03:31:40.454Z,6.40
2019-03-31T03:34:10.869Z,6.20
2019-03-31T03:36:43.635Z,6.20
2019-03-31T03:39:13.476Z,6.10
2019-03-31T03:41:44.353Z,6.10
2019-03-31T03:44:14.768Z,6.00
2019-03-31T03:46:45.228Z,6.00
2019-03-31T03:49:16.048Z,6.00
2019-03-31T03:51:46.664Z,6.00
2019-03-31T03:54:17.032Z,6.00
2019-03-31T03:56:47.430Z,5.90
2019-03-31T03:59:17.785Z,5.90
2019-03-31T04:01:48.321Z,5.90
2019-03-31T04:04:18.823Z,5.80
2019-03-31T04:06:49.234Z,5.70
2019-03-31T04:09:19.765Z,5.60
2019-03-31T04:11:50.233Z,5.60
2019-03-31T04:14:20.658Z,5.50
2019-03-31T04:16:51.028Z,5.40
2019-03-31T04:19:21.998Z,5.40
2019-03-31T04:21:52.821Z,5.30
2019-03-31T04:24:24.284Z,5.20
2019-03-31T04:26:55.304Z,5.10
2019-03-31T04:29:25.772Z,5.00
2019-03-31T04:31:56.391Z,4.90
2019-03-31T04:34:27.015Z,4.80
2019-03-31T04:36:57.781Z,4.80
2019-03-31T04:39:28.279Z,4.70
2019-03-31T04:41:58.805Z,4.80
2019-03-31T04:44:29.320Z,4.80
2019-03-31T04:46:59.954Z,4.90
2019-03-31T04:49:30.798Z,4.90
2019-03-31T04:52:01.520Z,5.00
2019-03-31T04:54:32.091Z,5.00
2019-03-31T04:57:04.534Z,5.00
2019-03-31T04:59:35.596Z,5.00
2019-03-31T05:02:07.093Z,5.00
2019-03-31T05:04:37.574Z,5.10
2019-03-31T05:07:08.275Z,5.10
2019-03-31T05:09:38.671Z,5.10
2019-03-31T05:12:09.390Z,5.10
2019-03-31T05:14:39.898Z,5.10
2019-03-31T05:17:10.413Z,5.10
2019-03-31T05:19:40.797Z,5.10
2019-03-31T05:22:11.656Z,5.10
2019-03-31T05:24:42.512Z,5.20
2019-03-31T05:27:13.069Z,5.30
2019-03-31T05:29:43.544Z,5.60
2019-03-31T05:32:15.400Z,6.10
2019-03-31T05:34:46.040Z,6.60
2019-03-31T05:37:17.105Z,7.20
2019-03-31T05:39:47.667Z,7.70
2019-03-31T05:42:18.228Z,8.30
2019-03-31T05:44:49.107Z,8.70
2019-03-31T05:47:19.986Z,9.30
2019-03-31T05:49:50.567Z,9.90
2019-03-31T05:52:21.029Z,10.50
2019-03-31T05:54:51.772Z,11.00
2019-03-31T05:57:22.370Z,11.60
2019-03-31T05:59:52.790Z,12.20
2019-03-31T06:02:23.374Z,12.80
2019-03-31T06:04:53.935Z,13.40
2019-03-31T06:07:24.421Z,13.70
2019-03-31T06:09:54.943Z,13.60
2019-03-31T06:12:26.004Z,13.70
2019-03-31T06:14:56.780Z,13.90
2019-03-31T06:17:27.319Z,14.60
2019-03-31T06:19:57.909Z,15.40
2019-03-31T06:22:28.274Z,16.10
2019-03-31T06:24:58.965Z,16.80
2019-03-31T06:27:29.404Z,16.90
2019-03-31T06:30:01.695Z,17.10
2019-03-31T06:32:33.090Z,17.00
2019-03-31T06:35:03.904Z,17.30
2019-03-31T06:37:34.737Z,17.80
2019-03-31T06:40:07.788Z,18.20
2019-03-31T06:42:38.898Z,18.50
2019-03-31T06:45:10.256Z,18.80
2019-03-31T06:47:40.815Z,19.10
2019-03-31T06:50:12.813Z,19.50
2019-03-31T06:52:43.413Z,20.00
2019-03-31T06:55:14.361Z,20.40
2019-03-31T06:57:45.419Z,21.00
2019-03-31T07:00:16.983Z,21.40
2019-03-31T07:02:47.955Z,21.90
2019-03-31T07:05:18.608Z,22.50
2019-03-31T07:07:49.617Z,22.90
2019-03-31T07:10:23.459Z,23.60
2019-03-31T07:12:53.909Z,23.90
2019-03-31T07:15:24.532Z,24.40
2019-03-31T07:17:55.028Z,24.80
2019-03-31T07:20:26.331Z,25.10
2019-03-31T07:22:58.095Z,25.20
2019-03-31T07:25:28.651Z,25.20
2019-03-31T07:27:59.176Z,25.30
2019-03-31T07:30:29.618Z,25.40
2019-03-31T07:33:00.037Z,25.50
2019-03-31T07:35:30.459Z,25.90
2019-03-31T07:38:01.038Z,25.40
2019-03-31T07:40:31.562Z,24.70
2019-03-31T07:43:02.097Z,24.50
2019-03-31T07:45:32.592Z,24.70
2019-03-31T07:48:03.144Z,25.10
2019-03-31T07:50:33.612Z,25.70
2019-03-31T07:53:04.633Z,26.10
2019-03-31T07:55:35.045Z,26.30
2019-03-31T07:58:05.730Z,26.20
2019-03-31T08:00:36.365Z,26.00
2019-03-31T08:03:06.997Z,26.30
2019-03-31T08:05:37.903Z,26.10
2019-03-31T08:08:10.236Z,25.50
2019-03-31T08:10:40.844Z,25.60
2019-03-31T08:13:11.480Z,25.50
2019-03-31T08:15:41.936Z,25.40
2019-03-31T08:18:12.656Z,25.70
2019-03-31T08:20:43.274Z,26.00
2019-03-31T08:23:13.774Z,26.40
2019-03-31T08:25:44.202Z,26.90
2019-03-31T08:28:14.647Z,27.10
2019-03-31T08:30:45.519Z,27.30
2019-03-31T08:33:16.344Z,27.80
2019-03-31T08:35:47.907Z,28.10
2019-03-31T08:38:18.753Z,28.30
2019-03-31T08:40:49.685Z,28.50
2019-03-31T08:43:20.312Z,29.10
2019-03-31T08:45:50.730Z,29.50
2019-03-31T08:48:21.565Z,29.70
2019-03-31T08:50:52.030Z,29.60
2019-03-31T08:53:23.305Z,30.10
2019-03-31T08:55:54.126Z,29.60
2019-03-31T08:58:24.568Z,29.60
2019-03-31T09:00:58.918Z,29.50
2019-03-31T09:03:29.518Z,29.60
2019-03-31T09:06:02.065Z,28.10
2019-03-31T09:08:32.710Z,26.80
2019-03-31T09:11:03.850Z,25.50
2019-03-31T09:13:35.455Z,25.40
2019-03-31T09:16:06.309Z,25.30
2019-03-31T09:18:36.881Z,25.10
2019-03-31T09:21:07.438Z,25.40
2019-03-31T09:23:37.953Z,26.20
2019-03-31T09:26:08.542Z,25.40
2019-03-31T09:28:39.488Z,24.80
2019-03-31T09:31:10.067Z,25.30
2019-03-31T09:33:41.573Z,25.30
2019-03-31T09:36:16.569Z,24.60
2019-03-31T09:38:44.948Z,23.90
2019-03-31T09:41:16.947Z,23.90
2019-03-31T09:43:47.412Z,24.00
2019-03-31T09:46:18.258Z,24.20
2019-03-31T09:48:48.765Z,24.70
2019-03-31T09:51:19.718Z,24.70
2019-03-31T09:53:50.512Z,25.10
2019-03-31T09:56:21.049Z,24.60
2019-03-31T09:58:52.571Z,23.60
2019-03-31T10:01:23.166Z,23.00
2019-03-31T10:03:53.718Z,22.50
2019-03-31T10:06:30.404Z,22.10
2019-03-31T10:08:56.962Z,21.50
2019-03-31T10:11:27.916Z,21.50
2019-03-31T10:13:58.340Z,22.10
2019-03-31T10:16:28.894Z,23.70
2019-03-31T10:18:59.414Z,24.90
2019-03-31T10:21:30.352Z,24.10
2019-03-31T10:24:01.479Z,23.60
2019-03-31T10:26:32.576Z,23.70
2019-03-31T10:29:05.050Z,24.70
2019-03-31T10:31:35.879Z,25.40
2019-03-31T10:34:06.345Z,26.10
2019-03-31T10:36:44.532Z,26.00
2019-03-31T10:39:10.087Z,25.20
2019-03-31T10:41:41.083Z,24.70
2019-03-31T10:44:11.899Z,23.90
2019-03-31T10:46:42.339Z,23.90
2019-03-31T10:49:12.780Z,22.60
2019-03-31T10:51:43.298Z,22.20
2019-03-31T10:54:14.385Z,21.80
2019-03-31T10:56:44.838Z,21.50
2019-03-31T10:59:15.907Z,20.80
2019-03-31T11:01:46.508Z,21.60
2019-03-31T11:04:17.041Z,22.00
2019-03-31T11:06:58.833Z,22.20
2019-03-31T11:09:20.404Z,22.40
2019-03-31T11:11:50.876Z,22.00
2019-03-31T11:14:21.273Z,21.20
2019-03-31T11:16:52.119Z,21.30
2019-03-31T11:19:22.963Z,21.90
2019-03-31T11:21:58.881Z,21.50
2019-03-31T11:24:29.322Z,21.10
2019-03-31T11:26:59.916Z,21.50
2019-03-31T11:29:30.912Z,22.40
2019-03-31T11:32:01.383Z,21.90
2019-03-31T11:34:31.827Z,20.60
2019-03-31T11:37:12.844Z,20.50
2019-03-31T11:39:34.337Z,21.30
2019-03-31T11:42:04.874Z,22.40
2019-03-31T11:44:35.453Z,22.20
2019-03-31T11:47:06.625Z,21.40
2019-03-31T11:49:37.436Z,21.60
2019-03-31T11:52:07.966Z,21.30
2019-03-31T11:54:38.934Z,21.10
2019-03-31T11:57:10.029Z,21.00
2019-03-31T11:59:40.542Z,20.60
2019-03-31T12:02:11.165Z,20.90
2019-03-31T12:04:41.658Z,21.50
2019-03-31T12:07:27.367Z,21.50
2019-03-31T12:09:46.257Z,21.80
2019-03-31T12:12:16.676Z,21.10
2019-03-31T12:14:59.853Z,21.40
2019-03-31T12:17:19.906Z,21.20
2019-03-31T12:19:50.728Z,21.10
2019-03-31T12:22:21.348Z,21.50
2019-03-31T12:24:52.532Z,22.30
2019-03-31T12:27:23.220Z,22.50
2019-03-31T12:29:54.269Z,22.30
2019-03-31T12:32:24.690Z,22.20
2019-03-31T12:34:55.940Z,21.50
2019-03-31T12:37:26.825Z,21.10
2019-03-31T12:39:58.209Z,20.80
2019-03-31T12:42:28.644Z,20.00
2019-03-31T12:44:59.541Z,20.30
2019-03-31T12:47:30.110Z,20.70
2019-03-31T12:50:00.643Z,21.00
2019-03-31T12:52:31.220Z,20.70
2019-03-31T12:55:02.082Z,20.00
2019-03-31T12:57:32.481Z,19.60
2019-03-31T13:00:03.085Z,19.50
2019-03-31T13:02:33.919Z,19.20
2019-03-31T13:05:05.288Z,18.30
2019-03-31T13:07:37.394Z,18.00
2019-03-31T13:10:09.551Z,17.80
2019-03-31T13:12:40.182Z,17.40
2019-03-31T13:15:11.009Z,16.80
2019-03-31T13:17:41.609Z,16.50
2019-03-31T13:20:13.290Z,16.60
2019-03-31T13:22:45.818Z,16.50
2019-03-31T13:25:16.587Z,16.50
2019-03-31T13:27:47.072Z,16.20
2019-03-31T13:30:20.302Z,16.10
2019-03-31T13:32:50.454Z,16.10
2019-03-31T13:35:21.069Z,16.10
2019-03-31T13:37:51.568Z,16.10
2019-03-31T13:40:25.708Z,16.20
2019-03-31T13:42:56.644Z,15.80
2019-03-31T13:45:27.453Z,15.80
2019-03-31T13:47:58.825Z,16.00
2019-03-31T13:50:29.779Z,16.50
2019-03-31T13:53:00.458Z,16.60
2019-03-31T13:55:30.985Z,16.80
2019-03-31T13:58:02.786Z,17.10
2019-03-31T14:00:41.019Z,16.50
2019-03-31T14:03:11.928Z,16.50
2019-03-31T14:05:43.611Z,16.50
2019-03-31T14:08:24.931Z,16.80
2019-03-31T14:10:46.437Z,16.50
2019-03-31T14:13:17.109Z,16.60
2019-03-31T14:15:48.081Z,16.90
2019-03-31T14:18:18.550Z,16.60
2019-03-31T14:20:49.000Z,16.50
2019-03-31T14:23:19.530Z,16.80
2019-03-31T14:25:50.103Z,16.80
2019-03-31T14:28:21.037Z,16.90
2019-03-31T14:30:53.156Z,16.70
2019-03-31T14:33:23.684Z,16.80
2019-03-31T14:35:54.228Z,16.60
2019-03-31T14:38:39.163Z,16.50
2019-03-31T14:40:57.707Z,16.50
2019-03-31T14:43:28.264Z,16.50
2019-03-31T14:45:58.851Z,16.10
2019-03-31T14:48:29.347Z,15.70
2019-03-31T14:51:00.230Z,15.10
2019-03-31T14:53:31.000Z,15.00
2019-03-31T14:56:02.150Z,15.00
2019-03-31T14:58:32.976Z,14.70
2019-03-31T15:01:03.492Z,14.60
2019-03-31T15:03:34.419Z,14.70
2019-03-31T15:06:05.213Z,14.70
2019-03-31T15:08:35.993Z,14.90
2019-03-31T15:11:06.553Z,15.00
2019-03-31T15:13:37.293Z,15.00
2019-03-31T15:16:09.533Z,14.90
2019-03-31T15:18:40.458Z,14.70
2019-03-31T15:21:11.005Z,14.60
2019-03-31T15:23:41.444Z,14.60
2019-03-31T15:26:12.662Z,14.50
2019-03-31T15:28:45.426Z,14.60
2019-03-31T15:31:15.702Z,14.70
2019-03-31T15:33:46.574Z,14.70
2019-03-31T15:36:16.996Z,14.60
2019-03-31T15:38:47.746Z,14.50
2019-03-31T15:41:21.418Z,14.50
2019-03-31T15:43:52.493Z,14.50
2019-03-31T15:46:24.567Z,14.40
2019-03-31T15:48:55.284Z,14.10
2019-03-31T15:51:25.953Z,14.00
2019-03-31T15:53:56.428Z,13.80
2019-03-31T15:56:26.854Z,13.70
2019-03-31T15:58:57.301Z,13.70
2019-03-31T16:01:27.930Z,13.60
2019-03-31T16:03:58.491Z,13.50
2019-03-31T16:06:29.140Z,13.40
2019-03-31T16:08:59.644Z,13.40
2019-03-31T16:11:29.624Z,13.20
2019-03-31T16:13:59.990Z,13.20
2019-03-31T16:16:30.737Z,13.10
2019-03-31T16:19:01.960Z,13.10
2019-03-31T16:21:33.045Z,13.10
2019-03-31T16:24:03.141Z,12.90
2019-03-31T16:26:33.304Z,12.90
2019-03-31T16:29:03.276Z,12.80
2019-03-31T16:31:33.192Z,12.80
2019-03-31T16:34:03.204Z,12.70
2019-03-31T16:36:33.333Z,12.60
2019-03-31T16:39:05.440Z,12.40
2019-03-31T16:41:36.232Z,12.20
2019-03-31T16:44:06.668Z,12.10
2019-03-31T16:46:39.759Z,12.00
2019-03-31T16:49:08.645Z,11.80
2019-03-31T16:51:38.816Z,11.70
2019-03-31T16:54:08.813Z,11.60
2019-03-31T16:56:51.908Z,11.60
2019-03-31T16:59:22.195Z,11.50
2019-03-31T17:01:55.163Z,11.40
2019-03-31T17:04:25.754Z,11.30
2019-03-31T17:06:56.196Z,11.30
2019-03-31T17:09:26.443Z,11.20
2019-03-31T17:11:56.919Z,11.20
2019-03-31T17:14:27.227Z,11.10
2019-03-31T17:16:57.338Z,11.10
2019-03-31T17:19:27.701Z,11.00
2019-03-31T17:21:59.819Z,11.00
2019-03-31T17:24:29.588Z,11.00
2019-03-31T17:26:59.761Z,10.90
2019-03-31T17:29:29.816Z,10.90
2019-03-31T17:31:59.937Z,10.90
2019-03-31T17:34:29.978Z,10.90
2019-03-31T17:37:00.415Z,10.80
2019-03-31T17:39:30.479Z,10.80
2019-03-31T17:42:00.478Z,10.80
2019-03-31T17:44:33.490Z,10.80
2019-03-31T17:47:05.176Z,10.80
2019-03-31T17:49:35.893Z,10.70
2019-03-31T17:52:06.074Z,10.70
2019-03-31T17:54:36.371Z,10.70
2019-03-31T17:57:06.400Z,10.70
2019-03-31T17:59:36.560Z,10.70
2019-03-31T18:02:07.047Z,10.70
2019-03-31T18:04:38.472Z,10.70
2019-03-31T18:07:08.557Z,10.60
2019-03-31T18:09:38.697Z,10.60
2019-03-31T18:12:09.161Z,10.60
2019-03-31T18:14:39.180Z,10.50
2019-03-31T18:17:09.363Z,10.50
2019-03-31T18:19:39.824Z,10.40
2019-03-31T18:22:16.639Z,10.40
2019-03-31T18:24:43.062Z,10.30
2019-03-31T18:27:13.229Z,10.20
2019-03-31T18:29:43.492Z,10.10
2019-03-31T18:32:14.067Z,10.10
2019-03-31T18:34:44.024Z,10.00
2019-03-31T18:37:13.948Z,10.00
2019-03-31T18:39:44.443Z,9.90
2019-03-31T18:42:14.470Z,9.80
2019-03-31T18:44:44.500Z,9.80
2019-03-31T18:47:14.574Z,9.70
2019-03-31T18:49:45.117Z,9.70
2019-03-31T18:52:15.222Z,9.60
2019-03-31T18:55:07.075Z,9.60
2019-03-31T18:57:42.243Z,9.50
2019-03-31T19:00:21.563Z,9.50
2019-03-31T19:03:07.553Z,9.40
2019-03-31T19:06:03.235Z,9.30
2019-03-31T19:08:47.897Z,9.10
2019-03-31T19:11:35.686Z,8.90
2019-03-31T19:14:22.386Z,8.80
2019-03-31T19:17:17.444Z,8.70
2019-03-31T19:19:52.702Z,8.60
2019-03-31T19:22:41.196Z,8.50
2019-03-31T19:25:33.193Z,8.40
2019-03-31T19:28:33.480Z,8.30
2019-03-31T19:31:28.462Z,8.30
2019-03-31T19:34:20.566Z,8.20
2019-03-31T19:36:58.360Z,8.10
2019-03-31T19:39:46.555Z,8.10
2019-03-31T19:42:25.197Z,8.10
2019-03-31T19:45:04.466Z,8.10
2019-03-31T19:47:56.526Z,8.00
2019-03-31T19:50:38.060Z,7.90
2019-03-31T19:53:41.226Z,8.00
2019-03-31T19:56:20.673Z,7.90
2019-03-31T19:59:08.316Z,7.90
2019-03-31T20:02:09.383Z,7.80
2019-03-31T20:05:04.345Z,7.70
2019-03-31T20:07:56.726Z,7.70
2019-03-31T20:10:50.951Z,7.60
2019-03-31T20:13:46.380Z,7.70
2019-03-31T20:16:22.070Z,7.60
2019-03-31T20:19:01.060Z,7.50
2019-03-31T20:21:35.550Z,7.30
2019-03-31T20:24:33.968Z,7.30
2019-03-31T20:27:15.886Z,7.40
2019-03-31T20:30:08.198Z,7.40
2019-03-31T20:32:46.754Z,7.40
2019-03-31T20:35:41.648Z,7.30
2019-03-31T20:38:27.820Z,7.30
2019-03-31T20:41:17.117Z,7.40
2019-03-31T20:44:04.434Z,7.40
2019-03-31T20:46:34.776Z,7.40
2019-03-31T20:49:04.726Z,7.40
2019-03-31T20:51:34.867Z,7.30
2019-03-31T20:54:04.883Z,7.30
2019-03-31T20:56:35.270Z,7.30
2019-03-31T20:59:05.815Z,7.40
2019-03-31T21:01:35.803Z,7.40
2019-03-31T21:04:06.173Z,7.40
2019-03-31T21:06:36.376Z,7.40
2019-03-31T21:09:08.492Z,7.50
2019-03-31T21:11:38.622Z,7.50
2019-03-31T21:14:10.080Z,7.50
2019-03-31T21:16:40.357Z,7.40
2019-03-31T21:19:10.782Z,7.40
2019-03-31T21:21:40.701Z,7.30
2019-03-31T21:24:10.718Z,7.30
2019-03-31T21:26:40.660Z,7.30
2019-03-31T21:29:10.481Z,7.40
2019-03-31T21:31:40.444Z,7.30
2019-03-31T21:34:10.482Z,7.30
2019-03-31T21:36:40.429Z,7.20
2019-03-31T21:39:10.271Z,7.20
2019-03-31T21:41:40.219Z,7.20
2019-03-31T21:44:10.540Z,7.20
2019-03-31T21:46:40.490Z,7.20
2019-03-31T21:49:10.477Z,7.10
2019-03-31T21:51:40.676Z,7.00
2019-03-31T21:54:10.922Z,6.90
2019-03-31T21:56:40.898Z,6.70
2019-03-31T21:59:10.776Z,6.70
2019-03-31T22:01:41.631Z,6.70
2019-03-31T22:04:11.809Z,6.60
2019-03-31T22:06:42.098Z,6.60
2019-03-31T22:09:12.201Z,6.60
2019-03-31T22:11:42.190Z,6.50
2019-03-31T22:14:12.624Z,6.50
2019-03-31T22:16:42.710Z,6.50
2019-03-31T22:19:13.099Z,6.50
2019-03-31T22:21:43.100Z,6.40
2019-03-31T22:24:12.924Z,6.40
2019-03-31T22:26:42.893Z,6.40
2019-03-31T22:29:12.844Z,6.40
2019-03-31T22:31:42.940Z,6.30
2019-03-31T22:34:13.123Z,6.20
2019-03-31T22:36:43.068Z,6.20
2019-03-31T22:39:13.149Z,6.10
2019-03-31T22:41:43.674Z,6.20
2019-03-31T22:44:13.543Z,6.20
2019-03-31T22:46:54.051Z,6.10
2019-03-31T22:49:15.624Z,6.00
2019-03-31T22:51:45.457Z,6.00
2019-03-31T22:54:15.435Z,6.10
2019-03-31T22:56:45.713Z,6.10
2019-03-31T22:59:16.093Z,6.10
2019-03-31T23:01:46.063Z,6.00
2019-03-31T23:04:15.981Z,5.90
2019-03-31T23:06:45.972Z,5.90
2019-03-31T23:09:16.052Z,5.90
2019-03-31T23:11:46.296Z,5.90
2019-03-31T23:14:16.264Z,5.90
2019-03-31T23:16:46.302Z,5.90
2019-03-31T23:19:16.607Z,5.80
2019-03-31T23:21:46.486Z,5.70
2019-03-31T23:24:16.369Z,5.70
2019-03-31T23:26:46.263Z,5.70
2019-03-31T23:29:16.150Z,5.50
2019-03-31T23:31:46.350Z,5.50
2019-03-31T23:34:16.372Z,5.50
2019-03-31T23:36:46.206Z,5.50
2019-03-31T23:39:16.300Z,5.60
2019-03-31T23:41:46.231Z,5.60
2019-03-31T23:44:16.339Z,5.50
2019-03-31T23:46:46.410Z,5.60
2019-03-31T23:49:16.269Z,5.60
2019-03-31T23:51:46.082Z,5.60
2019-03-31T23:54:16.257Z,5.60
2019-03-31T23:56:46.401Z,5.60
2019-03-31T23:59:16.412Z,5.50
